Time;durP1;ratioP1;P1;durP2;ratioP2;P2;SDS_P1;SDS_P2;PMS_P1;PMS_P2;Temp;Humidity;BMP_temperature;BMP_pressure;BME280_temperature;BME280_humidity;BME280_pressure;Samples;Min_cycle;Max_cycle;Signal;HPM_P1;HPM_P2
2022/06/22 00:00:18;;;;;;;12.73;6.80;;;23.00;1.00;;;;;;5051424;28;20388;-54
2022/06/22 00:02:47;;;;;;;13.13;7.50;;;22.90;1.00;;;;;;5051372;28;20420;-57
2022/06/22 00:05:43;;;;;;;11.82;7.00;;;22.80;1.00;;;;;;5050962;28;20459;-57
2022/06/22 00:08:16;;;;;;;13.38;7.40;;;22.90;12.90;;;;;;5049387;28;20409;-57
2022/06/22 00:10:53;;;;;;;10.93;7.20;;;22.70;37.70;;;;;;5033109;28;20390;-57
2022/06/22 00:13:24;;;;;;;11.57;7.43;;;22.60;29.60;;;;;;5049041;28;20908;-58
2022/06/22 00:16:36;;;;;;;10.70;7.32;;;22.60;20.50;;;;;;5050331;28;20386;-57
2022/06/22 00:19:16;;;;;;;13.00;7.57;;;22.60;80.20;;;;;;5041567;28;20416;-57
2022/06/22 00:21:42;;;;;;;13.70;7.30;;;22.60;99.90;;;;;;5050693;28;20401;-56
2022/06/22 00:24:23;;;;;;;15.05;8.80;;;22.60;99.90;;;;;;5050923;28;20919;-56
2022/06/22 00:27:30;;;;;;;13.77;8.75;;;22.50;1.00;;;;;;5051059;28;20720;-57
2022/06/22 00:30:07;;;;;;;14.35;8.70;;;22.40;1.00;;;;;;4954257;28;20406;-56
2022/06/22 00:32:33;;;;;;;14.27;8.80;;;22.40;89.60;;;;;;4950355;29;20398;-56
2022/06/22 00:35:35;;;;;;;14.77;8.60;;;22.50;16.10;;;;;;5007541;28;20400;-57
2022/06/22 00:38:01;;;;;;;14.55;9.32;;;22.50;58.90;;;;;;5050555;28;20797;-56
2022/06/22 00:40:27;;;;;;;13.73;8.40;;;22.60;12.40;;;;;;5051149;28;20389;-56
2022/06/22 00:42:52;;;;;;;13.73;8.52;;;22.60;1.00;;;;;;5050140;28;20409;-56
2022/06/22 00:45:25;;;;;;;12.52;8.55;;;22.60;1.00;;;;;;5050826;28;20443;-57
2022/06/22 00:48:07;;;;;;;15.95;9.18;;;22.60;21.00;;;;;;5050586;28;20393;-56
2022/06/22 00:50:43;;;;;;;13.70;9.30;;;22.50;99.90;;;;;;5032282;28;20394;-56
2022/06/22 00:53:38;;;;;;;15.48;8.48;;;22.50;1.00;;;;;;5035104;28;20941;-58
2022/06/22 00:56:16;;;;;;;13.18;8.45;;;22.40;35.40;;;;;;5050319;28;20398;-56
2022/06/22 00:59:01;;;;;;;14.32;9.23;;;22.20;1.00;;;;;;5035992;28;20404;-56
2022/06/22 01:01:40;;;;;;;18.05;9.63;;;22.20;99.90;;;;;;5050676;28;20377;-56
2022/06/22 01:04:17;;;;;;;16.83;9.50;;;22.10;99.90;;;;;;5050260;28;20409;-56
2022/06/22 01:06:52;;;;;;;14.60;9.50;;;22.10;1.00;;;;;;5049187;28;20413;-56
2022/06/22 01:09:41;;;;;;;14.45;9.40;;;22.00;1.00;;;;;;5050860;28;20471;-56
2022/06/22 01:12:39;;;;;;;14.43;9.90;;;22.00;1.00;;;;;;5049984;28;20389;-56
2022/06/22 01:15:24;;;;;;;15.45;10.00;;;21.90;99.90;;;;;;5043671;28;20404;-56
2022/06/22 01:18:02;;;;;;;13.40;9.82;;;21.80;1.00;;;;;;5050203;28;20393;-56
2022/06/22 01:20:27;;;;;;;14.63;10.68;;;21.70;1.00;;;;;;5050085;28;20637;-56
2022/06/22 01:23:04;;;;;;;17.30;10.70;;;21.70;1.00;;;;;;5049955;28;20934;-56
2022/06/22 01:25:43;;;;;;;17.75;10.60;;;21.60;1.00;;;;;;5049477;28;20420;-59
2022/06/22 01:28:13;;;;;;;16.50;10.98;;;21.50;99.90;;;;;;5049859;28;20455;-57
2022/06/22 01:30:41;;;;;;;14.63;10.60;;;21.50;99.90;;;;;;5036489;28;20390;-56
2022/06/22 01:33:15;;;;;;;15.95;9.40;;;21.50;1.00;;;;;;5049614;28;20866;-55
2022/06/22 01:35:42;;;;;;;15.30;10.05;;;21.50;99.90;;;;;;5049379;28;20944;-54
2022/06/22 01:38:29;;;;;;;16.50;9.80;;;21.50;1.00;;;;;;5049491;28;20416;-54
2022/06/22 01:41:14;;;;;;;15.68;10.57;;;21.50;1.00;;;;;;5049252;28;20481;-56
2022/06/22 01:43:49;;;;;;;14.98;10.20;;;21.50;99.90;;;;;;5048739;28;20409;-57
2022/06/22 01:46:23;;;;;;;15.13;9.23;;;21.60;99.90;;;;;;5050105;28;20460;-56
2022/06/22 01:48:58;;;;;;;13.70;8.90;;;21.50;99.90;;;;;;5049368;28;20409;-57
2022/06/22 01:51:38;;;;;;;14.98;9.80;;;21.40;1.00;;;;;;5032853;28;20393;-56
2022/06/22 01:54:14;;;;;;;17.05;10.10;;;21.10;1.00;;;;;;5049470;28;20489;-53
2022/06/22 01:57:14;;;;;;;15.10;9.88;;;21.00;99.90;;;;;;5048820;28;20394;-54
2022/06/22 01:59:49;;;;;;;16.35;9.88;;;20.90;1.00;;;;;;5031221;28;20376;-55
2022/06/22 02:02:47;;;;;;;17.02;10.40;;;21.00;1.00;;;;;;5032391;28;20417;-54
2022/06/22 02:05:40;;;;;;;14.55;10.18;;;21.10;1.00;;;;;;5049677;28;20490;-54
2022/06/22 02:08:36;;;;;;;14.50;10.13;;;21.00;99.90;;;;;;5049427;28;20443;-53
2022/06/22 02:11:08;;;;;;;16.65;10.20;;;21.10;99.90;;;;;;5043719;28;20393;-56
2022/06/22 02:13:56;;;;;;;13.50;9.70;;;21.10;99.90;;;;;;5048925;28;20866;-54
2022/06/22 02:16:57;;;;;;;15.43;9.98;;;21.10;1.00;;;;;;5050174;28;20523;-53
2022/06/22 02:19:22;;;;;;;14.90;9.45;;;21.20;99.90;;;;;;5053116;28;20483;-54
2022/06/22 02:21:49;;;;;;;18.10;10.03;;;21.30;99.90;;;;;;5052795;28;20810;-53
2022/06/22 02:24:39;;;;;;;16.52;9.52;;;21.50;85.00;;;;;;5053161;28;20425;-56
2022/06/22 02:27:09;;;;;;;11.90;8.50;;;21.60;1.00;;;;;;5050092;28;20429;-55
2022/06/22 02:29:39;;;;;;;17.30;8.90;;;21.60;99.90;;;;;;5052492;28;20805;-54
2022/06/22 02:32:09;;;;;;;14.32;9.07;;;21.60;99.90;;;;;;5053486;28;20396;-54
2022/06/22 02:34:36;;;;;;;12.00;8.00;;;21.50;20.60;;;;;;5052466;28;20413;-56
2022/06/22 02:37:05;;;;;;;12.48;7.57;;;21.50;1.00;;;;;;5053506;28;20404;-56
2022/06/22 02:39:33;;;;;;;15.63;8.55;;;21.60;1.00;;;;;;5053039;28;20450;-56
2022/06/22 02:44:47;;;;;;;13.05;8.65;;;21.70;1.00;;;;;;5052135;28;20404;-56
2022/06/22 02:47:31;;;;;;;12.17;8.23;;;21.70;99.90;;;;;;5053111;28;20385;-56
2022/06/22 02:50:12;;;;;;;12.48;7.60;;;21.70;99.90;;;;;;5037673;28;20390;-56
2022/06/22 02:52:42;;;;;;;11.38;7.97;;;21.60;99.90;;;;;;5051591;28;20397;-53
2022/06/22 02:55:15;;;;;;;13.20;8.27;;;21.50;99.90;;;;;;5052859;28;20393;-53
2022/06/22 02:57:53;;;;;;;16.95;7.40;;;21.50;99.90;;;;;;5052122;28;20419;-55
2022/06/22 03:00:33;;;;;;;12.80;7.87;;;21.50;99.90;;;;;;5052532;28;20400;-57
2022/06/22 03:03:06;;;;;;;12.30;7.53;;;21.60;28.30;;;;;;5052757;28;20401;-56
2022/06/22 03:05:34;;;;;;;10.90;7.20;;;21.70;1.00;;;;;;5052222;28;20472;-58
2022/06/22 03:08:02;;;;;;;11.88;7.18;;;21.70;1.00;;;;;;5015291;28;20395;-56
2022/06/22 03:10:59;;;;;;;13.97;8.60;;;21.60;1.00;;;;;;5033663;28;20720;-58
2022/06/22 03:13:29;;;;;;;14.00;8.35;;;21.50;1.00;;;;;;5037556;28;20404;-59
2022/06/22 03:15:56;;;;;;;14.43;8.32;;;21.40;40.80;;;;;;5052117;28;20382;-56
2022/06/22 03:18:28;;;;;;;14.57;8.95;;;21.30;99.90;;;;;;5052059;28;20386;-54
2022/06/22 03:21:02;;;;;;;14.65;8.50;;;21.10;1.00;;;;;;5051998;28;20499;-53
2022/06/22 03:23:48;;;;;;;20.48;8.70;;;20.80;99.90;;;;;;5051675;28;20798;-53
2022/06/22 03:26:29;;;;;;;12.43;8.55;;;20.90;99.90;;;;;;5052246;28;20393;-53
2022/06/22 03:29:04;;;;;;;14.60;9.35;;;20.80;1.00;;;;;;5051321;28;20448;-53
2022/06/22 03:31:41;;;;;;;15.77;8.80;;;20.80;1.00;;;;;;5052368;28;20366;-54
2022/06/22 03:34:18;;;;;;;14.25;8.02;;;20.90;99.90;;;;;;5052192;28;20903;-54
2022/06/22 03:36:53;;;;;;;12.60;8.32;;;20.90;1.00;;;;;;5050803;28;20507;-53
2022/06/22 03:39:22;;;;;;;13.90;8.68;;;20.90;1.00;;;;;;5052144;28;20407;-53
2022/06/22 03:41:55;;;;;;;12.30;8.03;;;20.90;92.70;;;;;;5051032;28;20641;-53
2022/06/22 03:44:34;;;;;;;12.33;8.03;;;20.90;99.90;;;;;;5052030;28;20512;-53
2022/06/22 03:47:07;;;;;;;14.80;8.88;;;21.10;99.90;;;;;;5051708;28;20849;-56
2022/06/22 03:49:44;;;;;;;13.40;8.23;;;21.20;99.90;;;;;;5052341;28;20393;-56
2022/06/22 03:52:18;;;;;;;12.60;7.88;;;21.10;99.90;;;;;;5052168;28;20405;-56
2022/06/22 03:54:56;;;;;;;13.70;8.13;;;21.10;1.00;;;;;;5051441;28;20881;-53
2022/06/22 03:57:27;;;;;;;13.23;8.30;;;20.90;1.00;;;;;;5051330;28;20389;-56
2022/06/22 03:59:53;;;;;;;13.02;8.57;;;20.80;99.90;;;;;;5051201;28;20378;-56
2022/06/22 04:02:19;;;;;;;15.33;8.50;;;20.90;99.90;;;;;;5051538;28;20477;-56
2022/06/22 04:04:50;;;;;;;13.68;8.30;;;21.10;99.90;;;;;;5032838;28;20524;-57
2022/06/22 04:07:17;;;;;;;13.00;8.30;;;21.30;1.00;;;;;;5050962;28;20404;-56
2022/06/22 04:09:49;;;;;;;13.27;8.02;;;21.40;1.00;;;;;;5051288;28;20409;-56
2022/06/22 04:12:27;;;;;;;12.80;8.27;;;21.60;99.90;;;;;;5033429;28;20857;-56
2022/06/22 04:15:29;;;;;;;13.57;8.05;;;21.80;99.90;;;;;;5050903;28;21042;-56
2022/06/22 04:18:03;;;;;;;12.88;8.20;;;21.80;99.90;;;;;;5049710;28;20858;-56
2022/06/22 04:20:57;;;;;;;14.50;8.60;;;21.80;99.90;;;;;;5050725;28;20450;-56
2022/06/22 04:23:33;;;;;;;12.07;8.07;;;22.00;14.50;;;;;;5051346;28;20425;-55
2022/06/22 04:26:13;;;;;;;13.75;8.27;;;22.10;1.00;;;;;;5051138;28;20480;-56
2022/06/22 04:28:43;;;;;;;12.90;7.97;;;22.00;1.00;;;;;;5049788;28;20408;-56
2022/06/22 04:31:16;;;;;;;12.93;8.60;;;22.10;1.00;;;;;;5050595;28;20405;-56
2022/06/22 04:33:52;;;;;;;12.48;8.05;;;22.00;1.00;;;;;;5050409;28;20882;-57
2022/06/22 04:36:27;;;;;;;13.55;8.18;;;22.20;1.00;;;;;;5051320;28;20935;-56
2022/06/22 04:39:01;;;;;;;14.07;8.20;;;22.30;1.00;;;;;;5031898;28;20716;-56
2022/06/22 04:41:33;;;;;;;13.25;8.25;;;22.50;99.90;;;;;;5050717;28;20528;-56
2022/06/22 04:44:18;;;;;;;14.73;8.55;;;22.50;99.90;;;;;;5050354;28;20412;-54
2022/06/22 04:46:48;;;;;;;12.60;7.93;;;22.70;99.90;;;;;;5049907;28;20397;-54
2022/06/22 04:49:30;;;;;;;14.13;8.10;;;22.80;99.90;;;;;;5051256;28;20440;-57
2022/06/22 04:52:01;;;;;;;13.15;8.07;;;22.70;99.90;;;;;;5049718;28;20867;-56
2022/06/22 04:54:31;;;;;;;12.00;7.30;;;22.80;99.90;;;;;;5050908;28;20393;-57
2022/06/22 04:57:02;;;;;;;12.55;7.32;;;22.90;99.90;;;;;;5049813;28;20370;-56
2022/06/22 04:59:29;;;;;;;12.23;7.25;;;23.10;99.90;;;;;;5049651;28;20751;-58
2022/06/22 05:02:04;;;;;;;14.17;7.50;;;23.20;99.90;;;;;;5049590;28;20598;-56
2022/06/22 05:04:35;;;;;;;11.65;7.45;;;23.40;99.90;;;;;;5050262;28;20428;-56
2022/06/22 05:07:21;;;;;;;11.60;7.70;;;23.40;90.50;;;;;;5050502;28;20427;-57
2022/06/22 05:10:02;;;;;;;13.38;7.60;;;23.30;75.20;;;;;;5049975;28;20409;-56
2022/06/22 05:12:31;;;;;;;12.38;7.53;;;22.90;99.90;;;;;;5050358;28;20481;-56
2022/06/22 05:15:01;;;;;;;13.90;8.00;;;22.70;99.90;;;;;;5049517;28;20464;-56
2022/06/22 05:17:35;;;;;;;11.65;7.63;;;22.80;99.90;;;;;;5050223;28;20407;-57
2022/06/22 05:20:21;;;;;;;13.40;7.90;;;22.80;98.30;;;;;;5050703;28;20408;-56
2022/06/22 05:22:50;;;;;;;13.40;7.90;;;23.00;77.10;;;;;;5045235;28;20413;-56
2022/06/22 05:25:17;;;;;;;12.27;8.07;;;23.20;30.70;;;;;;5047493;28;20413;-56
2022/06/22 05:28:05;;;;;;;12.87;8.40;;;23.10;24.40;;;;;;5049313;28;20393;-56
2022/06/22 05:30:36;;;;;;;15.05;7.57;;;22.90;25.70;;;;;;5048517;28;20398;-56
2022/06/22 05:33:10;;;;;;;10.55;7.00;;;22.80;14.70;;;;;;5049250;28;20393;-56
2022/06/22 05:35:42;;;;;;;12.77;7.90;;;22.60;11.90;;;;;;5050215;28;20373;-61
2022/06/22 05:38:09;;;;;;;11.70;7.50;;;22.50;21.30;;;;;;5041639;28;20403;-56
2022/06/22 05:40:37;;;;;;;12.07;7.70;;;22.50;34.00;;;;;;5046408;28;20376;-56
2022/06/22 05:43:06;;;;;;;14.20;7.82;;;22.70;36.50;;;;;;5031631;28;20409;-56
2022/06/22 05:45:41;;;;;;;13.23;7.00;;;22.80;17.90;;;;;;5049595;28;20454;-60
2022/06/22 05:48:15;;;;;;;10.93;7.55;;;22.80;31.90;;;;;;5029902;28;20391;-61
2022/06/22 05:50:47;;;;;;;11.73;8.35;;;22.80;24.50;;;;;;5030861;28;20380;-57
2022/06/22 05:53:25;;;;;;;13.90;7.55;;;22.80;28.60;;;;;;5032261;28;20518;-60
2022/06/22 05:56:10;;;;;;;12.57;8.07;;;22.60;54.60;;;;;;5048351;28;20499;-57
2022/06/22 05:58:55;;;;;;;16.73;8.40;;;22.40;55.80;;;;;;5048473;28;20398;-59
2022/06/22 06:01:25;;;;;;;14.00;8.00;;;22.50;67.30;;;;;;5049301;28;20393;-56
2022/06/22 06:04:04;;;;;;;12.55;8.20;;;22.90;60.50;;;;;;5045747;28;20439;-56
2022/06/22 06:06:40;;;;;;;13.20;8.70;;;22.70;71.90;;;;;;5047901;28;20397;-56
2022/06/22 06:09:19;;;;;;;15.35;9.10;;;23.00;70.80;;;;;;5050121;28;20418;-58
2022/06/22 06:11:49;;;;;;;16.50;9.00;;;23.40;51.90;;;;;;5049314;28;20389;-56
2022/06/22 06:14:24;;;;;;;14.15;8.32;;;23.40;57.60;;;;;;5035395;28;20758;-54
2022/06/22 06:16:53;;;;;;;13.00;8.77;;;23.50;68.10;;;;;;5049661;28;20921;-54
2022/06/22 06:19:24;;;;;;;12.93;8.25;;;23.40;86.50;;;;;;5048960;28;20397;-54
2022/06/22 06:21:54;;;;;;;12.67;8.70;;;23.60;50.70;;;;;;5047810;28;20854;-54
2022/06/22 06:24:23;;;;;;;13.38;7.97;;;23.90;42.30;;;;;;5048910;28;20424;-55
2022/06/22 06:30:18;;;;;;;11.00;7.60;;;24.30;1.00;;;;;;5047885;28;20439;-54
2022/06/22 06:33:14;;;;;;;12.68;7.80;;;24.40;1.00;;;;;;5048690;28;20378;-54
2022/06/22 06:35:45;;;;;;;13.40;8.10;;;24.30;1.00;;;;;;5048139;28;20535;-55
2022/06/22 06:38:43;;;;;;;14.98;8.05;;;24.40;1.00;;;;;;5049089;28;20850;-54
2022/06/22 06:41:13;;;;;;;13.25;8.60;;;24.70;1.00;;;;;;5029334;28;20402;-54
2022/06/22 06:43:56;;;;;;;13.90;8.55;;;25.40;1.00;;;;;;5029528;28;20903;-54
2022/06/22 06:46:33;;;;;;;14.85;8.10;;;26.10;1.00;;;;;;5049189;28;21322;-54
2022/06/22 06:49:42;;;;;;;12.98;8.20;;;25.70;1.00;;;;;;5047867;28;20397;-54
2022/06/22 06:52:37;;;;;;;15.27;7.32;;;25.50;1.00;;;;;;5031072;28;20471;-54
2022/06/22 06:55:06;;;;;;;11.30;7.30;;;25.40;1.00;;;;;;5048439;28;20397;-55
2022/06/22 06:57:32;;;;;;;13.88;7.90;;;25.60;1.00;;;;;;5048570;28;20429;-54
2022/06/22 07:00:04;;;;;;;13.38;7.68;;;25.60;1.00;;;;;;5030486;28;20765;-54
2022/06/22 07:02:35;;;;;;;15.13;7.75;;;25.50;1.00;;;;;;5049133;28;20389;-53
2022/06/22 07:05:05;;;;;;;21.90;7.65;;;25.10;1.00;;;;;;5034289;28;20874;-54
2022/06/22 07:07:39;;;;;;;14.70;8.13;;;25.10;1.00;;;;;;5052561;28;20812;-54
2022/06/22 07:10:13;;;;;;;15.45;8.30;;;24.90;1.00;;;;;;5052786;28;20382;-54
2022/06/22 07:13:00;;;;;;;12.65;8.60;;;24.80;1.00;;;;;;5055255;28;20386;-59
2022/06/22 07:15:34;;;;;;;16.00;8.80;;;24.70;1.00;;;;;;5052791;28;20386;-53
2022/06/22 07:18:11;;;;;;;12.25;7.53;;;24.50;1.00;;;;;;5052369;28;20393;-54
2022/06/22 07:20:43;;;;;;;12.13;8.15;;;24.40;1.00;;;;;;5052632;28;20476;-54
2022/06/22 07:23:23;;;;;;;15.23;8.00;;;24.20;1.00;;;;;;5052584;28;20464;-54
2022/06/22 07:26:15;;;;;;;16.95;8.75;;;24.20;1.00;;;;;;5051022;28;20385;-54
2022/06/22 07:28:53;;;;;;;16.23;7.70;;;24.10;1.00;;;;;;5053049;28;20392;-59
2022/06/22 07:31:29;;;;;;;16.08;8.85;;;24.10;1.00;;;;;;5051053;28;20427;-54
2022/06/22 07:34:29;;;;;;;13.27;8.40;;;24.30;1.00;;;;;;5051379;28;20403;-55
2022/06/22 07:37:00;;;;;;;14.23;8.30;;;24.50;1.00;;;;;;5066945;28;20383;-55
2022/06/22 07:39:42;;;;;;;25.57;9.07;;;24.50;1.00;;;;;;5072012;28;20387;-55
2022/06/22 07:42:11;;;;;;;18.45;8.73;;;24.80;1.00;;;;;;5072730;28;20429;-55
2022/06/22 07:44:41;;;;;;;12.97;8.10;;;25.00;1.00;;;;;;5072467;28;20527;-55
2022/06/22 07:47:11;;;;;;;12.43;7.75;;;25.20;1.00;;;;;;5053990;28;20388;-54
2022/06/22 07:50:03;;;;;;;12.95;7.53;;;25.30;1.00;;;;;;5072050;28;20380;-55
2022/06/22 07:52:45;;;;;;;16.25;7.45;;;25.40;1.00;;;;;;5049480;28;20437;-55
2022/06/22 07:55:39;;;;;;;15.80;7.72;;;25.50;1.00;;;;;;5071804;28;20388;-55
2022/06/22 07:58:37;;;;;;;12.60;7.15;;;25.30;1.00;;;;;;5071512;28;20372;-55
2022/06/22 08:01:17;;;;;;;17.10;7.85;;;24.80;1.00;;;;;;5043619;28;20765;-55
2022/06/22 08:04:02;;;;;;;11.13;7.18;;;24.60;1.00;;;;;;5071110;28;20896;-59
2022/06/22 08:06:37;;;;;;;12.68;7.50;;;24.50;1.00;;;;;;5071866;28;20411;-54
2022/06/22 08:09:15;;;;;;;14.57;7.25;;;24.50;1.00;;;;;;5071527;28;20502;-55
2022/06/22 08:11:48;;;;;;;15.23;8.68;;;24.40;1.00;;;;;;5036212;28;20406;-60
2022/06/22 08:14:19;;;;;;;12.23;7.25;;;24.70;1.00;;;;;;5056183;28;20389;-55
2022/06/22 08:16:50;;;;;;;13.07;7.55;;;25.10;1.00;;;;;;5051040;28;20381;-55
2022/06/22 08:19:16;;;;;;;12.43;7.20;;;25.40;1.00;;;;;;5051771;28;20409;-55
2022/06/22 08:21:47;;;;;;;14.18;7.03;;;25.40;1.00;;;;;;5050616;28;21164;-61
2022/06/22 08:24:18;;;;;;;17.13;7.78;;;25.10;1.00;;;;;;5051338;28;20461;-55
2022/06/22 08:26:44;;;;;;;15.52;7.63;;;25.10;1.00;;;;;;5033086;28;20397;-59
2022/06/22 08:29:11;;;;;;;15.70;7.20;;;25.00;1.00;;;;;;5051453;28;20393;-55
2022/06/22 08:31:49;;;;;;;12.90;7.20;;;25.10;1.00;;;;;;5051436;28;20397;-55
2022/06/22 08:34:21;;;;;;;15.25;7.50;;;25.20;1.00;;;;;;5051017;28;21146;-56
2022/06/22 08:36:54;;;;;;;13.30;7.57;;;25.30;1.00;;;;;;5050480;28;20413;-55
2022/06/22 08:39:31;;;;;;;14.65;7.60;;;25.10;1.00;;;;;;5050905;28;20408;-55
2022/06/22 08:42:15;;;;;;;20.00;7.53;;;25.00;1.00;;;;;;5050146;28;20381;-55
2022/06/22 08:45:08;;;;;;;14.23;8.37;;;24.80;1.00;;;;;;5032695;28;20413;-59
2022/06/22 08:47:45;;;;;;;16.05;8.27;;;24.80;1.00;;;;;;5050842;28;20386;-55
2022/06/22 08:50:36;;;;;;;14.33;8.53;;;24.70;1.00;;;;;;5050795;28;20378;-55
2022/06/22 08:53:24;;;;;;;14.07;7.93;;;24.60;1.00;;;;;;5031825;28;20687;-55
2022/06/22 08:56:11;;;;;;;14.27;8.13;;;24.60;1.00;;;;;;5032625;28;20401;-55
2022/06/22 08:58:54;;;;;;;16.58;7.57;;;24.60;1.00;;;;;;5051113;28;20401;-55
2022/06/22 09:01:44;;;;;;;16.55;7.57;;;24.60;1.00;;;;;;5032988;28;20401;-55
2022/06/22 09:04:40;;;;;;;19.08;8.10;;;24.50;1.00;;;;;;5050864;28;20490;-55
2022/06/22 09:07:13;;;;;;;15.30;7.78;;;24.20;1.00;;;;;;5049884;28;20424;-55
2022/06/22 09:09:53;;;;;;;16.67;8.15;;;24.10;1.00;;;;;;5050132;28;20847;-55
2022/06/22 09:12:35;;;;;;;16.30;8.30;;;24.20;1.00;;;;;;5050265;28;20382;-55
2022/06/22 09:15:12;;;;;;;13.50;7.60;;;24.10;1.00;;;;;;5029899;28;20463;-55
2022/06/22 09:18:09;;;;;;;13.48;7.65;;;24.00;1.00;;;;;;5030196;28;20414;-55
2022/06/22 09:20:55;;;;;;;13.85;7.00;;;24.10;1.00;;;;;;5030675;28;20743;-55
2022/06/22 09:23:38;;;;;;;11.98;7.50;;;24.30;1.00;;;;;;5029785;28;20501;-54
2022/06/22 09:26:18;;;;;;;15.80;8.40;;;24.30;1.00;;;;;;5029151;28;20449;-55
2022/06/22 09:28:54;;;;;;;16.00;8.00;;;24.50;1.00;;;;;;5029625;28;20398;-60
2022/06/22 09:31:31;;;;;;;14.80;8.05;;;24.60;1.00;;;;;;5030517;28;20384;-55
2022/06/22 09:34:34;;;;;;;13.63;7.70;;;24.70;1.00;;;;;;5029367;28;20934;-55
2022/06/22 09:37:37;;;;;;;17.98;8.02;;;24.50;1.00;;;;;;5029854;28;20379;-55
2022/06/22 09:40:21;;;;;;;14.32;7.10;;;24.30;1.00;;;;;;5011357;28;20431;-55
2022/06/22 09:43:11;;;;;;;14.23;7.50;;;24.30;1.00;;;;;;5029373;28;20511;-55
2022/06/22 09:46:04;;;;;;;15.60;8.05;;;24.20;1.00;;;;;;5030295;28;20462;-55
2022/06/22 09:48:33;;;;;;;13.32;7.60;;;24.30;1.00;;;;;;5029740;28;20375;-55
2022/06/22 09:51:23;;;;;;;12.32;7.40;;;24.70;1.00;;;;;;5029317;28;20398;-56
2022/06/22 09:54:03;;;;;;;13.43;7.50;;;24.80;1.00;;;;;;5029543;28;20473;-55
2022/06/22 09:57:07;;;;;;;10.80;7.00;;;24.90;1.00;;;;;;5030096;28;20442;-55
2022/06/22 10:00:00;;;;;;;15.40;7.82;;;25.00;1.00;;;;;;5029691;28;20412;-55
2022/06/22 10:02:54;;;;;;;13.20;7.72;;;24.90;1.00;;;;;;5029550;28;20384;-54
2022/06/22 10:05:38;;;;;;;14.35;7.82;;;24.80;1.00;;;;;;5018951;28;20410;-55
2022/06/22 10:08:31;;;;;;;13.52;7.65;;;25.00;1.00;;;;;;5029495;28;20402;-55
2022/06/22 10:11:38;;;;;;;16.10;8.68;;;25.10;1.00;;;;;;5029046;28;20455;-54
2022/06/22 10:14:22;;;;;;;13.55;8.05;;;25.10;1.00;;;;;;4948226;29;20390;-55
2022/06/22 10:17:03;;;;;;;15.43;9.70;;;25.20;1.00;;;;;;5040300;28;20397;-54
2022/06/22 10:19:54;;;;;;;15.25;8.82;;;25.40;1.00;;;;;;5049290;28;20436;-55
2022/06/22 10:22:55;;;;;;;14.88;8.73;;;25.40;1.00;;;;;;5049011;28;20473;-55
2022/06/22 10:25:50;;;;;;;15.50;8.50;;;25.50;1.00;;;;;;5003050;28;20779;-56
2022/06/22 10:28:35;;;;;;;16.63;8.95;;;25.10;1.00;;;;;;5049473;28;20384;-55
2022/06/22 10:31:22;;;;;;;16.27;9.13;;;25.00;1.00;;;;;;5048977;28;20476;-54
2022/06/22 10:33:57;;;;;;;17.33;9.43;;;25.00;1.00;;;;;;5048610;28;20383;-55
2022/06/22 10:37:21;;;;;;;14.55;9.27;;;25.00;1.00;;;;;;5049242;28;20839;-55
2022/06/22 10:39:56;;;;;;;13.60;9.90;;;25.10;1.00;;;;;;4990070;28;20516;-54
2022/06/22 10:45:59;;;;;;;17.42;10.20;;;24.70;26.90;;;;;;5053281;28;20457;-55
2022/06/22 10:48:28;;;;;;;16.08;10.23;;;24.60;99.90;;;;;;5048908;28;20445;-55
2022/06/22 10:51:12;;;;;;;15.25;9.90;;;24.70;1.00;;;;;;5052724;28;20429;-55
2022/06/22 10:54:18;;;;;;;14.73;9.40;;;24.60;99.90;;;;;;5053159;28;20397;-55
2022/06/22 10:57:11;;;;;;;14.80;7.93;;;24.60;1.00;;;;;;5052758;28;20405;-56
2022/06/22 11:00:09;;;;;;;13.75;8.70;;;24.60;99.90;;;;;;5052908;28;20389;-55
2022/06/22 11:02:57;;;;;;;16.73;8.65;;;24.50;99.90;;;;;;5052780;28;20389;-55
2022/06/22 11:05:34;;;;;;;15.85;9.18;;;24.60;99.90;;;;;;5052534;28;20400;-55
2022/06/22 11:08:16;;;;;;;12.85;8.98;;;24.60;99.90;;;;;;5051924;28;20381;-55
2022/06/22 11:10:45;;;;;;;13.27;9.30;;;24.80;49.60;;;;;;5053432;28;20416;-55
2022/06/22 11:13:19;;;;;;;14.98;9.60;;;24.60;99.90;;;;;;5052646;28;20424;-55
2022/06/22 11:16:24;;;;;;;14.20;10.10;;;24.50;98.80;;;;;;5052317;28;20470;-60
2022/06/22 11:19:33;;;;;;;15.77;10.90;;;24.40;1.00;;;;;;5051162;28;20393;-55
2022/06/22 11:22:04;;;;;;;18.17;12.02;;;24.30;92.70;;;;;;5051787;28;20455;-55
2022/06/22 11:24:55;;;;;;;15.82;11.70;;;24.30;33.50;;;;;;5051859;28;20483;-56
2022/06/22 11:33:54;;;;;;;13.65;10.60;;;24.50;1.00;;;;;;5051969;28;20404;-56
2022/06/22 11:37:01;;;;;;;16.30;10.63;;;24.50;1.00;;;;;;5032245;28;20386;-55
2022/06/22 11:39:36;;;;;;;17.63;11.05;;;24.40;1.00;;;;;;5032489;28;20489;-55
2022/06/22 11:42:19;;;;;;;16.38;11.55;;;24.40;99.90;;;;;;5051626;28;20392;-55
2022/06/22 11:48:01;;;;;;;17.77;11.80;;;24.20;99.90;;;;;;5051881;28;20391;-55
2022/06/22 11:51:02;;;;;;;17.50;11.50;;;24.00;1.00;;;;;;5036001;28;20940;-55
2022/06/22 11:53:34;;;;;;;15.00;11.87;;;24.10;1.00;;;;;;5034272;28;20508;-55
2022/06/22 11:56:16;;;;;;;17.92;11.85;;;24.10;70.10;;;;;;5051025;28;20401;-55
2022/06/22 11:59:03;;;;;;;17.93;12.90;;;24.10;69.00;;;;;;5051939;28;20496;-55
2022/06/22 12:01:58;;;;;;;16.50;11.43;;;24.00;1.00;;;;;;5052256;28;20382;-55
2022/06/22 12:05:02;;;;;;;17.60;11.10;;;24.30;99.90;;;;;;5052412;28;20463;-55
2022/06/22 12:07:45;;;;;;;15.27;10.80;;;24.40;99.90;;;;;;5052225;28;20382;-55
2022/06/22 12:10:22;;;;;;;15.40;9.97;;;24.80;1.00;;;;;;5051969;28;20382;-55
2022/06/22 12:13:00;;;;;;;13.93;9.50;;;25.10;1.00;;;;;;5050605;28;20715;-60
2022/06/22 12:15:32;;;;;;;11.48;8.15;;;25.30;99.90;;;;;;5051626;28;20913;-55
2022/06/22 12:18:27;;;;;;;15.00;8.40;;;25.80;99.90;;;;;;5051047;28;20471;-55
2022/06/22 12:21:14;;;;;;;12.75;8.30;;;25.80;99.90;;;;;;5051317;28;20385;-55
2022/06/22 12:23:52;;;;;;;15.27;7.65;;;26.40;99.90;;;;;;5051088;28;20440;-56
2022/06/22 12:26:23;;;;;;;16.10;8.80;;;26.30;99.90;;;;;;5052101;28;20461;-55
2022/06/22 12:29:09;;;;;;;13.15;6.80;;;26.40;99.90;;;;;;5050492;28;20369;-56
2022/06/22 12:31:50;;;;;;;12.00;7.20;;;26.40;99.90;;;;;;5051665;28;20467;-55
2022/06/22 12:34:29;;;;;;;12.52;7.85;;;26.30;75.80;;;;;;5051329;28;20385;-55
2022/06/22 12:37:11;;;;;;;11.03;7.30;;;25.90;99.90;;;;;;5032367;28;20747;-55
2022/06/22 12:39:48;;;;;;;13.80;7.00;;;25.90;99.90;;;;;;5051028;28;20378;-55
2022/06/22 12:42:33;;;;;;;14.13;8.63;;;25.90;99.90;;;;;;5051390;28;20392;-55
2022/06/22 12:45:35;;;;;;;14.52;9.40;;;26.00;99.90;;;;;;5050152;28;20377;-55
2022/06/22 12:48:22;;;;;;;15.10;8.10;;;26.00;99.90;;;;;;5050058;28;20394;-55
2022/06/22 12:51:18;;;;;;;14.73;7.55;;;25.80;99.90;;;;;;5050005;28;20447;-55
2022/06/22 12:53:58;;;;;;;13.75;8.52;;;25.60;99.90;;;;;;5051060;28;20389;-55
2022/06/22 12:56:39;;;;;;;17.13;8.68;;;25.50;99.90;;;;;;5051229;28;20386;-55
2022/06/22 12:59:13;;;;;;;14.98;8.63;;;25.20;99.90;;;;;;5049910;28;20378;-55
2022/06/22 13:01:39;;;;;;;13.10;8.43;;;25.40;1.00;;;;;;5050124;28;20399;-55
2022/06/22 13:04:10;;;;;;;17.63;8.35;;;25.50;99.90;;;;;;5050027;28;20412;-57
2022/06/22 13:06:41;;;;;;;13.60;8.57;;;25.50;99.90;;;;;;5050859;28;20850;-55
2022/06/22 13:09:08;;;;;;;13.30;7.50;;;25.50;99.90;;;;;;5050064;28;20609;-55
2022/06/22 13:11:36;;;;;;;15.85;9.90;;;25.60;99.90;;;;;;5050208;28;20485;-55
2022/06/22 13:14:21;;;;;;;12.18;8.95;;;25.60;99.90;;;;;;5049409;28;20488;-58
2022/06/22 13:17:04;;;;;;;14.05;9.80;;;25.50;99.90;;;;;;5050200;28;20374;-59
2022/06/22 13:20:00;;;;;;;16.85;8.43;;;25.40;1.00;;;;;;5050249;28;20926;-55
2022/06/22 13:22:58;;;;;;;17.53;9.30;;;25.50;99.90;;;;;;5049720;28;20807;-55
2022/06/22 13:25:36;;;;;;;16.67;8.15;;;25.40;99.90;;;;;;5048597;28;20409;-55
2022/06/22 13:28:21;;;;;;;14.65;8.50;;;25.40;99.90;;;;;;5048729;28;20396;-55
2022/06/22 13:30:56;;;;;;;17.73;10.98;;;25.50;99.90;;;;;;5048468;28;20389;-59
2022/06/22 13:33:45;;;;;;;17.58;11.75;;;25.50;64.90;;;;;;5048876;28;20381;-55
2022/06/22 13:36:26;;;;;;;18.60;12.63;;;25.60;1.00;;;;;;5048959;28;20385;-55
2022/06/22 13:39:13;;;;;;;20.90;13.52;;;25.40;99.90;;;;;;5048742;28;20415;-55
2022/06/22 13:42:05;;;;;;;17.02;9.82;;;25.10;50.00;;;;;;5048886;28;20759;-55
2022/06/22 13:44:43;;;;;;;19.77;9.52;;;24.90;1.00;;;;;;5048881;28;20405;-55
2022/06/22 13:47:30;;;;;;;17.13;8.90;;;24.80;1.00;;;;;;5048942;28;20392;-55
2022/06/22 13:50:20;;;;;;;16.53;8.80;;;24.80;99.90;;;;;;5048490;28;20381;-55
2022/06/22 13:52:57;;;;;;;15.23;8.75;;;25.00;27.30;;;;;;5048429;28;20839;-55
2022/06/22 13:55:49;;;;;;;15.48;8.90;;;24.80;99.90;;;;;;5049018;28;20374;-56
2022/06/22 13:58:42;;;;;;;14.25;9.05;;;25.00;3.90;;;;;;5048680;28;20590;-55
2022/06/22 14:01:37;;;;;;;15.65;11.02;;;25.20;1.00;;;;;;5048197;28;20386;-55
2022/06/22 14:04:29;;;;;;;19.77;12.73;;;25.50;1.00;;;;;;5048539;28;20409;-55